sensor_id;sensor_type;location;lat;lon;timestamp;pressure;altitude;pressure_sealevel;temperature;humidity
80128;BME280;69440;52.118;5.408;2023-05-29T00:02:01;102583.31;;;13.28;69.44
80128;BME280;69440;52.118;5.408;2023-05-29T00:04:28;102585.59;;;13.37;70.11
80128;BME280;69440;52.118;5.408;2023-05-29T00:06:54;102588.72;;;13.28;68.43
80128;BME280;69440;52.118;5.408;2023-05-29T00:09:21;102590.03;;;13.16;68.67
80128;BME280;69440;52.118;5.408;2023-05-29T00:11:48;102587.34;;;13.18;69.73
80128;BME280;69440;52.118;5.408;2023-05-29T00:14:19;102593.50;;;13.21;69.77
80128;BME280;69440;52.118;5.408;2023-05-29T00:16:46;102577.44;;;13.18;69.12
80128;BME280;69440;52.118;5.408;2023-05-29T00:19:13;102574.91;;;13.12;69.03
80128;BME280;69440;52.118;5.408;2023-05-29T00:21:40;102578.81;;;13.05;69.18
80128;BME280;69440;52.118;5.408;2023-05-29T00:24:07;102574.63;;;12.98;69.38
80128;BME280;69440;52.118;5.408;2023-05-29T00:26:34;102579.97;;;12.99;69.23
80128;BME280;69440;52.118;5.408;2023-05-29T00:29:00;102584.22;;;13.05;69.47
80128;BME280;69440;52.118;5.408;2023-05-29T00:31:27;102585.03;;;13.07;69.18
80128;BME280;69440;52.118;5.408;2023-05-29T00:33:54;102587.06;;;13.02;69.75
80128;BME280;69440;52.118;5.408;2023-05-29T00:36:21;102583.59;;;12.98;69.03
80128;BME280;69440;52.118;5.408;2023-05-29T00:38:48;102588.31;;;12.93;69.40
80128;BME280;69440;52.118;5.408;2023-05-29T00:41:15;102592.78;;;12.94;69.42
80128;BME280;69440;52.118;5.408;2023-05-29T00:43:44;102599.38;;;12.87;68.99
80128;BME280;69440;52.118;5.408;2023-05-29T00:46:12;102600.25;;;12.88;69.63
80128;BME280;69440;52.118;5.408;2023-05-29T00:48:42;102598.50;;;12.85;69.42
80128;BME280;69440;52.118;5.408;2023-05-29T00:51:10;102599.44;;;12.86;69.44
80128;BME280;69440;52.118;5.408;2023-05-29T00:53:38;102604.84;;;12.84;69.08
80128;BME280;69440;52.118;5.408;2023-05-29T00:56:07;102608.25;;;12.67;69.38
80128;BME280;69440;52.118;5.408;2023-05-29T00:58:34;102604.25;;;12.54;69.60
80128;BME280;69440;52.118;5.408;2023-05-29T01:01:02;102603.97;;;12.62;69.87
80128;BME280;69440;52.118;5.408;2023-05-29T01:03:29;102612.25;;;12.57;69.56
80128;BME280;69440;52.118;5.408;2023-05-29T01:05:58;102612.25;;;12.57;69.60
80128;BME280;69440;52.118;5.408;2023-05-29T01:08:25;102606.03;;;12.55;69.91
80128;BME280;69440;52.118;5.408;2023-05-29T01:10:56;102605.09;;;12.56;70.08
80128;BME280;69440;52.118;5.408;2023-05-29T01:13:29;102611.38;;;12.57;69.98
80128;BME280;69440;52.118;5.408;2023-05-29T01:16:06;102612.31;;;12.56;69.59
80128;BME280;69440;52.118;5.408;2023-05-29T01:19:05;102617.56;;;12.59;70.04
80128;BME280;69440;52.118;5.408;2023-05-29T01:21:42;102622.78;;;12.63;69.33
80128;BME280;69440;52.118;5.408;2023-05-29T01:27:01;102632.34;;;12.49;70.27
80128;BME280;69440;52.118;5.408;2023-05-29T01:29:32;102637.03;;;12.43;70.85
80128;BME280;69440;52.118;5.408;2023-05-29T01:32:01;102640.59;;;12.44;70.10
80128;BME280;69440;52.118;5.408;2023-05-29T01:34:28;102645.13;;;12.43;70.37
80128;BME280;69440;52.118;5.408;2023-05-29T01:36:55;102642.34;;;12.45;70.57
80128;BME280;69440;52.118;5.408;2023-05-29T01:39:21;102646.06;;;12.42;70.38
80128;BME280;69440;52.118;5.408;2023-05-29T01:41:49;102646.22;;;12.38;70.08
80128;BME280;69440;52.118;5.408;2023-05-29T01:44:17;102644.53;;;12.35;70.05
80128;BME280;69440;52.118;5.408;2023-05-29T01:46:44;102657.13;;;12.35;70.28
80128;BME280;69440;52.118;5.408;2023-05-29T01:49:12;102649.03;;;12.35;70.04
80128;BME280;69440;52.118;5.408;2023-05-29T01:51:42;102652.91;;;12.28;70.24
80128;BME280;69440;52.118;5.408;2023-05-29T01:54:09;102652.13;;;12.24;70.75
80128;BME280;69440;52.118;5.408;2023-05-29T01:56:36;102657.47;;;12.26;70.44
80128;BME280;69440;52.118;5.408;2023-05-29T01:59:03;102651.28;;;12.22;70.80
80128;BME280;69440;52.118;5.408;2023-05-29T02:01:31;102659.38;;;12.22;70.90
80128;BME280;69440;52.118;5.408;2023-05-29T02:03:58;102662.13;;;12.21;70.88
80128;BME280;69440;52.118;5.408;2023-05-29T02:06:24;102668.47;;;12.20;70.23
80128;BME280;69440;52.118;5.408;2023-05-29T02:08:51;102665.28;;;12.08;70.37
80128;BME280;69440;52.118;5.408;2023-05-29T02:11:17;102673.38;;;12.08;70.45
80128;BME280;69440;52.118;5.408;2023-05-29T02:13:43;102673.16;;;12.15;70.66
80128;BME280;69440;52.118;5.408;2023-05-29T02:16:10;102665.13;;;12.13;70.67
80128;BME280;69440;52.118;5.408;2023-05-29T02:18:37;102655.50;;;12.06;71.01
80128;BME280;69440;52.118;5.408;2023-05-29T02:21:03;102654.91;;;11.98;70.89
80128;BME280;69440;52.118;5.408;2023-05-29T02:23:29;102646.88;;;11.96;71.25
80128;BME280;69440;52.118;5.408;2023-05-29T02:25:56;102649.34;;;12.02;71.30
80128;BME280;69440;52.118;5.408;2023-05-29T02:28:22;102651.47;;;11.93;71.45
80128;BME280;69440;52.118;5.408;2023-05-29T02:30:49;102646.94;;;11.95;71.16
80128;BME280;69440;52.118;5.408;2023-05-29T02:33:15;102654.22;;;11.91;71.22
80128;BME280;69440;52.118;5.408;2023-05-29T02:35:42;102655.91;;;11.95;71.28
80128;BME280;69440;52.118;5.408;2023-05-29T02:38:08;102658.00;;;11.86;71.30
80128;BME280;69440;52.118;5.408;2023-05-29T02:40:34;102656.25;;;11.85;71.84
80128;BME280;69440;52.118;5.408;2023-05-29T02:43:01;102659.88;;;11.84;71.85
80128;BME280;69440;52.118;5.408;2023-05-29T02:45:27;102662.56;;;11.84;71.49
80128;BME280;69440;52.118;5.408;2023-05-29T02:47:54;102661.84;;;11.78;72.03
80128;BME280;69440;52.118;5.408;2023-05-29T02:50:21;102654.91;;;11.71;71.89
80128;BME280;69440;52.118;5.408;2023-05-29T02:52:47;102658.34;;;11.75;72.02
80128;BME280;69440;52.118;5.408;2023-05-29T02:55:15;102658.31;;;11.76;72.44
80128;BME280;69440;52.118;5.408;2023-05-29T02:57:41;102656.66;;;11.72;72.07
80128;BME280;69440;52.118;5.408;2023-05-29T03:00:08;102653.28;;;11.66;72.13
80128;BME280;69440;52.118;5.408;2023-05-29T03:02:35;102656.97;;;11.63;71.72
80128;BME280;69440;52.118;5.408;2023-05-29T03:05:02;102669.53;;;11.63;72.20
80128;BME280;69440;52.118;5.408;2023-05-29T03:07:29;102664.19;;;11.61;72.87
80128;BME280;69440;52.118;5.408;2023-05-29T03:09:55;102669.63;;;11.60;72.05
80128;BME280;69440;52.118;5.408;2023-05-29T03:12:25;102668.66;;;11.62;72.46
80128;BME280;69440;52.118;5.408;2023-05-29T03:14:54;102666.22;;;11.55;71.70
80128;BME280;69440;52.118;5.408;2023-05-29T03:17:22;102661.59;;;11.58;72.50
80128;BME280;69440;52.118;5.408;2023-05-29T03:19:49;102663.44;;;11.58;72.15
80128;BME280;69440;52.118;5.408;2023-05-29T03:22:15;102653.59;;;11.57;71.89
80128;BME280;69440;52.118;5.408;2023-05-29T03:24:42;102655.41;;;11.56;72.33
80128;BME280;69440;52.118;5.408;2023-05-29T03:27:08;102648.25;;;11.55;72.78
80128;BME280;69440;52.118;5.408;2023-05-29T03:29:35;102648.63;;;11.44;72.78
80128;BME280;69440;52.118;5.408;2023-05-29T03:32:02;102663.03;;;11.43;72.52
80128;BME280;69440;52.118;5.408;2023-05-29T03:34:28;102660.38;;;11.42;72.59
80128;BME280;69440;52.118;5.408;2023-05-29T03:36:55;102663.94;;;11.42;72.97
80128;BME280;69440;52.118;5.408;2023-05-29T03:39:23;102658.66;;;11.39;72.09
80128;BME280;69440;52.118;5.408;2023-05-29T03:41:49;102660.47;;;11.39;72.47
80128;BME280;69440;52.118;5.408;2023-05-29T03:44:16;102658.63;;;11.41;72.53
80128;BME280;69440;52.118;5.408;2023-05-29T03:46:42;102657.69;;;11.42;72.40
80128;BME280;69440;52.118;5.408;2023-05-29T03:49:09;102665.88;;;11.39;73.07
80128;BME280;69440;52.118;5.408;2023-05-29T03:51:35;102658.81;;;11.35;72.52
80128;BME280;69440;52.118;5.408;2023-05-29T03:54:02;102666.97;;;11.32;72.81
80128;BME280;69440;52.118;5.408;2023-05-29T03:56:29;102663.72;;;11.22;72.23
80128;BME280;69440;52.118;5.408;2023-05-29T03:58:56;102673.34;;;11.29;72.79
80128;BME280;69440;52.118;5.408;2023-05-29T04:01:22;102673.25;;;11.32;72.56
80128;BME280;69440;52.118;5.408;2023-05-29T04:03:49;102675.06;;;11.32;72.96
80128;BME280;69440;52.118;5.408;2023-05-29T04:06:16;102678.59;;;11.34;72.45
80128;BME280;69440;52.118;5.408;2023-05-29T04:08:43;102674.22;;;11.30;72.51
80128;BME280;69440;52.118;5.408;2023-05-29T04:11:09;102679.53;;;11.33;72.55
80128;BME280;69440;52.118;5.408;2023-05-29T04:13:38;102675.97;;;11.31;71.74
80128;BME280;69440;52.118;5.408;2023-05-29T04:16:04;102682.28;;;11.30;72.58
80128;BME280;69440;52.118;5.408;2023-05-29T04:18:31;102686.06;;;11.24;72.34
80128;BME280;69440;52.118;5.408;2023-05-29T04:20:57;102682.59;;;11.20;71.61
80128;BME280;69440;52.118;5.408;2023-05-29T04:23:24;102688.72;;;11.26;72.75
80128;BME280;69440;52.118;5.408;2023-05-29T04:25:50;102691.25;;;11.30;72.40
80128;BME280;69440;52.118;5.408;2023-05-29T04:28:17;102696.41;;;11.38;72.04
80128;BME280;69440;52.118;5.408;2023-05-29T04:30:47;102694.59;;;11.38;72.32
80128;BME280;69440;52.118;5.408;2023-05-29T04:33:13;102693.72;;;11.38;71.69
80128;BME280;69440;52.118;5.408;2023-05-29T04:35:41;102694.75;;;11.34;72.30
80128;BME280;69440;52.118;5.408;2023-05-29T04:38:10;102698.19;;;11.39;72.06
80128;BME280;69440;52.118;5.408;2023-05-29T04:40:36;102710.41;;;11.49;72.25
80128;BME280;69440;52.118;5.408;2023-05-29T04:43:03;102712.06;;;11.53;72.04
80128;BME280;69440;52.118;5.408;2023-05-29T04:45:31;102711.06;;;11.56;71.30
80128;BME280;69440;52.118;5.408;2023-05-29T04:47:58;102714.75;;;11.53;71.64
80128;BME280;69440;52.118;5.408;2023-05-29T04:50:25;102710.97;;;11.59;71.38
80128;BME280;69440;52.118;5.408;2023-05-29T04:52:52;102726.25;;;11.58;71.04
80128;BME280;69440;52.118;5.408;2023-05-29T04:55:18;102716.41;;;11.57;70.98
80128;BME280;69440;52.118;5.408;2023-05-29T04:57:45;102709.16;;;11.59;71.75
80128;BME280;69440;52.118;5.408;2023-05-29T05:00:11;102711.56;;;11.68;71.02
80128;BME280;69440;52.118;5.408;2023-05-29T05:02:41;102714.25;;;11.68;71.58
80128;BME280;69440;52.118;5.408;2023-05-29T05:05:09;102727.78;;;11.67;70.80
80128;BME280;69440;52.118;5.408;2023-05-29T05:07:36;102720.56;;;11.67;70.96
80128;BME280;69440;52.118;5.408;2023-05-29T05:10:03;102719.53;;;11.71;71.15
80128;BME280;69440;52.118;5.408;2023-05-29T05:12:30;102717.63;;;11.75;70.91
80128;BME280;69440;52.118;5.408;2023-05-29T05:14:57;102719.00;;;11.88;71.13
80128;BME280;69440;52.118;5.408;2023-05-29T05:17:23;102727.84;;;11.92;71.06
80128;BME280;69440;52.118;5.408;2023-05-29T05:19:50;102725.84;;;11.98;70.73
80128;BME280;69440;52.118;5.408;2023-05-29T05:22:18;102717.00;;;11.95;70.08
80128;BME280;69440;52.118;5.408;2023-05-29T05:24:45;102727.94;;;11.89;69.30
80128;BME280;69440;52.118;5.408;2023-05-29T05:27:11;102723.38;;;11.91;69.61
80128;BME280;69440;52.118;5.408;2023-05-29T05:29:38;102720.47;;;11.98;70.20
80128;BME280;69440;52.118;5.408;2023-05-29T05:32:05;102718.59;;;12.00;69.88
80128;BME280;69440;52.118;5.408;2023-05-29T05:34:31;102723.44;;;12.16;69.43
80128;BME280;69440;52.118;5.408;2023-05-29T05:36:58;102721.38;;;12.22;68.74
80128;BME280;69440;52.118;5.408;2023-05-29T05:39:24;102724.78;;;12.29;69.39
80128;BME280;69440;52.118;5.408;2023-05-29T05:41:51;102730.00;;;12.33;68.62
80128;BME280;69440;52.118;5.408;2023-05-29T05:44:17;102732.47;;;12.39;68.00
80128;BME280;69440;52.118;5.408;2023-05-29T05:46:44;102729.59;;;12.44;68.22
80128;BME280;69440;52.118;5.408;2023-05-29T05:49:11;102732.25;;;12.46;67.79
80128;BME280;69440;52.118;5.408;2023-05-29T05:51:37;102730.47;;;12.44;67.20
80128;BME280;69440;52.118;5.408;2023-05-29T05:54:04;102742.91;;;12.49;66.77
80128;BME280;69440;52.118;5.408;2023-05-29T05:56:30;102729.16;;;12.56;68.01
80128;BME280;69440;52.118;5.408;2023-05-29T05:58:57;102749.59;;;12.63;67.18
80128;BME280;69440;52.118;5.408;2023-05-29T06:01:24;102739.31;;;12.73;66.44
80128;BME280;69440;52.118;5.408;2023-05-29T06:03:50;102730.63;;;12.65;64.91
80128;BME280;69440;52.118;5.408;2023-05-29T06:06:17;102739.56;;;12.67;66.59
80128;BME280;69440;52.118;5.408;2023-05-29T06:08:44;102743.91;;;12.71;65.53
80128;BME280;69440;52.118;5.408;2023-05-29T06:11:12;102741.25;;;12.69;65.53
80128;BME280;69440;52.118;5.408;2023-05-29T06:13:38;102742.72;;;12.78;66.42
80128;BME280;69440;52.118;5.408;2023-05-29T06:16:05;102741.53;;;12.85;64.96
80128;BME280;69440;52.118;5.408;2023-05-29T06:18:31;102730.66;;;12.88;65.32
80128;BME280;69440;52.118;5.408;2023-05-29T06:20:58;102734.25;;;12.89;64.13
80128;BME280;69440;52.118;5.408;2023-05-29T06:23:25;102739.53;;;12.92;64.04
80128;BME280;69440;52.118;5.408;2023-05-29T06:25:51;102735.81;;;12.94;64.45
80128;BME280;69440;52.118;5.408;2023-05-29T06:28:18;102734.06;;;12.93;64.45
80128;BME280;69440;52.118;5.408;2023-05-29T06:30:44;102743.78;;;12.97;64.45
80128;BME280;69440;52.118;5.408;2023-05-29T06:33:12;102739.16;;;13.01;64.15
80128;BME280;69440;52.118;5.408;2023-05-29T06:35:38;102731.94;;;13.01;63.06
80128;BME280;69440;52.118;5.408;2023-05-29T06:38:05;102736.56;;;12.98;62.81
80128;BME280;69440;52.118;5.408;2023-05-29T06:40:32;102739.91;;;13.04;63.09
80128;BME280;69440;52.118;5.408;2023-05-29T06:42:58;102749.41;;;13.15;62.96
80128;BME280;69440;52.118;5.408;2023-05-29T06:45:25;102743.63;;;13.25;63.34
80128;BME280;69440;52.118;5.408;2023-05-29T06:47:51;102743.19;;;13.36;62.90
80128;BME280;69440;52.118;5.408;2023-05-29T06:50:18;102749.88;;;13.49;63.37
80128;BME280;69440;52.118;5.408;2023-05-29T06:52:44;102765.66;;;13.60;61.84
80128;BME280;69440;52.118;5.408;2023-05-29T06:55:11;102756.53;;;13.62;59.89
80128;BME280;69440;52.118;5.408;2023-05-29T06:57:38;102752.84;;;13.65;60.53
80128;BME280;69440;52.118;5.408;2023-05-29T07:00:05;102751.69;;;13.71;60.69
80128;BME280;69440;52.118;5.408;2023-05-29T07:02:32;102752.50;;;13.73;61.45
80128;BME280;69440;52.118;5.408;2023-05-29T07:04:59;102750.56;;;13.76;61.13
80128;BME280;69440;52.118;5.408;2023-05-29T07:07:25;102755.53;;;13.87;61.46
80128;BME280;69440;52.118;5.408;2023-05-29T07:09:52;102757.91;;;13.94;61.31
80128;BME280;69440;52.118;5.408;2023-05-29T07:12:22;102748.72;;;13.98;60.44
80128;BME280;69440;52.118;5.408;2023-05-29T07:14:49;102746.47;;;14.10;61.93
80128;BME280;69440;52.118;5.408;2023-05-29T07:17:16;102754.38;;;14.14;59.69
80128;BME280;69440;52.118;5.408;2023-05-29T07:19:42;102753.97;;;14.23;61.12
80128;BME280;69440;52.118;5.408;2023-05-29T07:22:09;102753.09;;;14.23;58.53
80128;BME280;69440;52.118;5.408;2023-05-29T07:24:36;102759.16;;;14.28;60.18
80128;BME280;69440;52.118;5.408;2023-05-29T07:27:03;102765.00;;;14.39;59.87
80128;BME280;69440;52.118;5.408;2023-05-29T07:29:29;102764.75;;;14.45;59.84
80128;BME280;69440;52.118;5.408;2023-05-29T07:31:56;102760.69;;;14.55;60.39
80128;BME280;69440;52.118;5.408;2023-05-29T07:34:22;102764.06;;;14.60;58.68
80128;BME280;69440;52.118;5.408;2023-05-29T07:37:01;102763.72;;;14.68;59.09
80128;BME280;69440;52.118;5.408;2023-05-29T07:39:28;102769.00;;;14.71;58.82
80128;BME280;69440;52.118;5.408;2023-05-29T07:41:55;102762.38;;;14.78;57.64
80128;BME280;69440;52.118;5.408;2023-05-29T07:44:21;102758.50;;;14.84;57.02
80128;BME280;69440;52.118;5.408;2023-05-29T07:46:48;102766.47;;;14.87;56.70
80128;BME280;69440;52.118;5.408;2023-05-29T07:49:15;102760.84;;;14.91;57.21
80128;BME280;69440;52.118;5.408;2023-05-29T07:51:42;102763.25;;;14.98;56.80
80128;BME280;69440;52.118;5.408;2023-05-29T07:54:08;102757.22;;;15.11;57.57
80128;BME280;69440;52.118;5.408;2023-05-29T07:56:37;102764.59;;;15.27;56.63
80128;BME280;69440;52.118;5.408;2023-05-29T07:59:11;102758.03;;;15.32;56.54
80128;BME280;69440;52.118;5.408;2023-05-29T08:01:37;102764.25;;;15.34;56.87
80128;BME280;69440;52.118;5.408;2023-05-29T08:04:05;102767.84;;;15.35;56.81
80128;BME280;69440;52.118;5.408;2023-05-29T08:06:32;102768.19;;;15.46;55.48
80128;BME280;69440;52.118;5.408;2023-05-29T08:09:02;102766.06;;;15.52;55.70
80128;BME280;69440;52.118;5.408;2023-05-29T08:11:29;102767.53;;;15.60;56.40
80128;BME280;69440;52.118;5.408;2023-05-29T08:13:57;102768.38;;;15.62;54.75
80128;BME280;69440;52.118;5.408;2023-05-29T08:16:24;102770.13;;;15.63;53.80
80128;BME280;69440;52.118;5.408;2023-05-29T08:18:50;102771.88;;;15.64;54.60
80128;BME280;69440;52.118;5.408;2023-05-29T08:21:17;102782.44;;;15.70;54.38
80128;BME280;69440;52.118;5.408;2023-05-29T08:23:43;102772.31;;;15.73;54.39
80128;BME280;69440;52.118;5.408;2023-05-29T08:26:10;102775.66;;;15.78;54.32
80128;BME280;69440;52.118;5.408;2023-05-29T08:28:37;102771.34;;;15.74;54.32
80128;BME280;69440;52.118;5.408;2023-05-29T08:31:06;102772.06;;;15.78;53.50
80128;BME280;69440;52.118;5.408;2023-05-29T08:33:33;102781.88;;;15.80;53.80
80128;BME280;69440;52.118;5.408;2023-05-29T08:36:00;102770.50;;;15.91;54.76
80128;BME280;69440;52.118;5.408;2023-05-29T08:38:26;102758.16;;;16.03;54.38
80128;BME280;69440;52.118;5.408;2023-05-29T08:40:54;102771.66;;;16.04;55.27
80128;BME280;69440;52.118;5.408;2023-05-29T08:43:22;102765.09;;;16.08;53.72
80128;BME280;69440;52.118;5.408;2023-05-29T08:45:54;102763.75;;;16.17;54.64
80128;BME280;69440;52.118;5.408;2023-05-29T08:48:24;102772.38;;;16.25;54.16
80128;BME280;69440;52.118;5.408;2023-05-29T08:50:55;102766.16;;;16.23;54.25
80128;BME280;69440;52.118;5.408;2023-05-29T08:53:23;102781.69;;;16.20;52.33
80128;BME280;69440;52.118;5.408;2023-05-29T08:55:50;102769.75;;;16.24;53.03
80128;BME280;69440;52.118;5.408;2023-05-29T08:58:19;102778.84;;;16.23;50.89
80128;BME280;69440;52.118;5.408;2023-05-29T09:00:48;102781.00;;;16.33;53.81
80128;BME280;69440;52.118;5.408;2023-05-29T09:03:15;102770.28;;;16.48;52.68
80128;BME280;69440;52.118;5.408;2023-05-29T09:05:42;102777.25;;;16.53;51.92
80128;BME280;69440;52.118;5.408;2023-05-29T09:08:10;102770.28;;;16.65;52.15
80128;BME280;69440;52.118;5.408;2023-05-29T09:10:42;102773.66;;;16.70;51.35
80128;BME280;69440;52.118;5.408;2023-05-29T09:13:10;102783.41;;;16.74;52.59
80128;BME280;69440;52.118;5.408;2023-05-29T09:15:37;102789.28;;;16.82;52.30
80128;BME280;69440;52.118;5.408;2023-05-29T09:18:06;102773.72;;;16.86;52.14
80128;BME280;69440;52.118;5.408;2023-05-29T09:20:35;102782.00;;;17.00;51.12
80128;BME280;69440;52.118;5.408;2023-05-29T09:23:04;102780.84;;;17.04;51.63
80128;BME280;69440;52.118;5.408;2023-05-29T09:25:33;102768.22;;;17.03;51.45
80128;BME280;69440;52.118;5.408;2023-05-29T09:28:02;102778.34;;;17.17;51.09
80128;BME280;69440;52.118;5.408;2023-05-29T09:30:36;102779.59;;;17.27;52.20
80128;BME280;69440;52.118;5.408;2023-05-29T09:33:03;102775.47;;;17.35;51.59
80128;BME280;69440;52.118;5.408;2023-05-29T09:38:07;102765.75;;;17.47;51.48
80128;BME280;69440;52.118;5.408;2023-05-29T09:40:36;102774.34;;;17.55;51.48
80128;BME280;69440;52.118;5.408;2023-05-29T09:43:16;102771.34;;;17.60;49.20
80128;BME280;69440;52.118;5.408;2023-05-29T09:45:45;102776.19;;;17.55;50.04
80128;BME280;69440;52.118;5.408;2023-05-29T09:50:40;102765.41;;;17.69;50.69
80128;BME280;69440;52.118;5.408;2023-05-29T09:53:22;102769.47;;;17.78;49.08
80128;BME280;69440;52.118;5.408;2023-05-29T09:55:51;102758.31;;;17.82;50.19
80128;BME280;69440;52.118;5.408;2023-05-29T09:58:19;102767.16;;;17.86;48.32
80128;BME280;69440;52.118;5.408;2023-05-29T10:00:46;102752.31;;;17.91;49.24
80128;BME280;69440;52.118;5.408;2023-05-29T10:03:15;102757.47;;;18.12;50.08
80128;BME280;69440;52.118;5.408;2023-05-29T10:05:47;102761.38;;;18.22;49.68
80128;BME280;69440;52.118;5.408;2023-05-29T10:08:15;102761.78;;;18.30;47.68
80128;BME280;69440;52.118;5.408;2023-05-29T10:10:45;102761.69;;;18.31;48.43
80128;BME280;69440;52.118;5.408;2023-05-29T10:13:14;102756.34;;;18.30;48.18
80128;BME280;69440;52.118;5.408;2023-05-29T10:15:43;102753.13;;;18.23;47.02
80128;BME280;69440;52.118;5.408;2023-05-29T10:18:26;102758.28;;;18.28;49.16
80128;BME280;69440;52.118;5.408;2023-05-29T10:20:56;102749.31;;;18.26;47.88
80128;BME280;69440;52.118;5.408;2023-05-29T10:23:25;102748.75;;;18.35;48.47
80128;BME280;69440;52.118;5.408;2023-05-29T10:25:58;102750.66;;;18.49;47.96
80128;BME280;69440;52.118;5.408;2023-05-29T10:28:30;102747.25;;;18.59;48.40
80128;BME280;69440;52.118;5.408;2023-05-29T10:31:08;102752.66;;;18.75;48.20
80128;BME280;69440;52.118;5.408;2023-05-29T10:33:52;102748.78;;;18.79;47.26
80128;BME280;69440;52.118;5.408;2023-05-29T10:36:26;102735.72;;;18.84;47.85
80128;BME280;69440;52.118;5.408;2023-05-29T10:38:56;102745.66;;;18.85;47.66
80128;BME280;69440;52.118;5.408;2023-05-29T10:44:02;102746.72;;;18.97;45.08
80128;BME280;69440;52.118;5.408;2023-05-29T10:49:18;102744.50;;;19.04;46.90
80128;BME280;69440;52.118;5.408;2023-05-29T10:51:45;102741.88;;;19.02;44.43
80128;BME280;69440;52.118;5.408;2023-05-29T10:54:12;102744.41;;;19.05;44.60
80128;BME280;69440;52.118;5.408;2023-05-29T10:56:40;102740.97;;;19.16;43.68
80128;BME280;69440;52.118;5.408;2023-05-29T10:59:10;102740.47;;;19.23;44.21
80128;BME280;69440;52.118;5.408;2023-05-29T11:01:39;102733.03;;;19.40;43.29
80128;BME280;69440;52.118;5.408;2023-05-29T11:06:48;102732.13;;;19.68;42.90
80128;BME280;69440;52.118;5.408;2023-05-29T11:17:30;102733.25;;;20.17;45.54
80128;BME280;69440;52.118;5.408;2023-05-29T11:19:57;102725.78;;;20.46;44.71
80128;BME280;69440;52.118;5.408;2023-05-29T11:22:32;102734.44;;;20.66;42.94
80128;BME280;69440;52.118;5.408;2023-05-29T11:25:01;102730.28;;;20.73;41.42
80128;BME280;69440;52.118;5.408;2023-05-29T11:27:31;102721.53;;;20.68;40.35
80128;BME280;69440;52.118;5.408;2023-05-29T11:29:58;102728.09;;;20.65;40.16
80128;BME280;69440;52.118;5.408;2023-05-29T11:32:27;102717.16;;;20.65;40.58
80128;BME280;69440;52.118;5.408;2023-05-29T11:34:55;102720.44;;;20.70;40.71
80128;BME280;69440;52.118;5.408;2023-05-29T11:37:23;102713.66;;;20.76;40.44
80128;BME280;69440;52.118;5.408;2023-05-29T11:39:50;102713.78;;;20.87;40.68
80128;BME280;69440;52.118;5.408;2023-05-29T11:42:17;102721.94;;;21.13;40.21
80128;BME280;69440;52.118;5.408;2023-05-29T11:44:43;102716.22;;;21.28;39.43
80128;BME280;69440;52.118;5.408;2023-05-29T11:47:10;102723.34;;;21.18;39.33
80128;BME280;69440;52.118;5.408;2023-05-29T11:49:36;102718.22;;;21.14;37.58
80128;BME280;69440;52.118;5.408;2023-05-29T11:52:13;102719.31;;;20.98;37.74
80128;BME280;69440;52.118;5.408;2023-05-29T11:54:43;102724.81;;;20.86;40.06
80128;BME280;69440;52.118;5.408;2023-05-29T11:57:19;102721.53;;;20.81;41.43
80128;BME280;69440;52.118;5.408;2023-05-29T11:59:47;102722.09;;;20.86;41.59
80128;BME280;69440;52.118;5.408;2023-05-29T12:02:15;102723.38;;;20.93;41.29
80128;BME280;69440;52.118;5.408;2023-05-29T12:04:41;102720.50;;;21.07;41.91
80128;BME280;69440;52.118;5.408;2023-05-29T12:07:20;102715.56;;;21.12;39.85
80128;BME280;69440;52.118;5.408;2023-05-29T12:09:46;102703.88;;;21.10;40.30
80128;BME280;69440;52.118;5.408;2023-05-29T12:12:15;102714.38;;;21.03;40.52
80128;BME280;69440;52.118;5.408;2023-05-29T12:14:41;102721.63;;;20.92;38.92
80128;BME280;69440;52.118;5.408;2023-05-29T12:17:11;102715.72;;;20.98;40.74
80128;BME280;69440;52.118;5.408;2023-05-29T12:19:38;102713.41;;;21.04;40.08
80128;BME280;69440;52.118;5.408;2023-05-29T12:22:05;102719.31;;;21.24;40.56
80128;BME280;69440;52.118;5.408;2023-05-29T12:24:31;102720.47;;;21.45;41.15
80128;BME280;69440;52.118;5.408;2023-05-29T12:27:08;102712.47;;;21.66;40.10
80128;BME280;69440;52.118;5.408;2023-05-29T12:29:35;102716.56;;;21.60;38.52
80128;BME280;69440;52.118;5.408;2023-05-29T12:32:02;102716.50;;;21.49;39.87
80128;BME280;69440;52.118;5.408;2023-05-29T12:34:34;102716.41;;;21.38;39.81
80128;BME280;69440;52.118;5.408;2023-05-29T12:37:08;102707.06;;;21.17;39.16
80128;BME280;69440;52.118;5.408;2023-05-29T12:39:39;102709.13;;;21.26;40.68
80128;BME280;69440;52.118;5.408;2023-05-29T12:42:05;102706.03;;;21.43;39.72
80128;BME280;69440;52.118;5.408;2023-05-29T12:44:33;102702.25;;;22.05;39.23
80128;BME280;69440;52.118;5.408;2023-05-29T12:46:59;102705.72;;;22.53;36.35
80128;BME280;69440;52.118;5.408;2023-05-29T12:49:26;102706.72;;;22.63;35.97
80128;BME280;69440;52.118;5.408;2023-05-29T12:51:54;102707.16;;;22.81;36.40
80128;BME280;69440;52.118;5.408;2023-05-29T12:54:21;102698.53;;;22.85;35.32
80128;BME280;69440;52.118;5.408;2023-05-29T12:56:47;102702.38;;;23.16;35.66
80128;BME280;69440;52.118;5.408;2023-05-29T12:59:16;102700.75;;;23.25;35.91
80128;BME280;69440;52.118;5.408;2023-05-29T13:01:43;102703.88;;;23.20;36.27
80128;BME280;69440;52.118;5.408;2023-05-29T13:04:10;102705.28;;;23.04;36.30
80128;BME280;69440;52.118;5.408;2023-05-29T13:06:38;102704.41;;;22.81;36.50
80128;BME280;69440;52.118;5.408;2023-05-29T13:09:05;102704.28;;;23.05;37.09
80128;BME280;69440;52.118;5.408;2023-05-29T13:11:34;102705.75;;;23.20;33.39
80128;BME280;69440;52.118;5.408;2023-05-29T13:14:03;102708.75;;;23.28;33.08
80128;BME280;69440;52.118;5.408;2023-05-29T13:16:29;102700.84;;;23.46;32.83
80128;BME280;69440;52.118;5.408;2023-05-29T13:18:56;102697.13;;;23.58;33.62